Time;durP1;ratioP1;P1;durP2;ratioP2;P2;SDS_P1;SDS_P2;PMS_P1;PMS_P2;Temp;Humidity;BMP_temperature;BMP_pressure;BME280_temperature;BME280_humidity;BME280_pressure;Samples;Min_cycle;Max_cycle;Signal;HPM_P1;HPM_P2
2024/01/27 00:00:38;;;;;;;;;33.33;28.00;;;;;5.55;65.22;103532.47;2016318;27;3599229;-75
2024/01/27 00:01:50;;;;;;;;;29.00;24.80;;;;;5.54;65.64;103531.56;2038404;27;3589775;-75
2024/01/27 00:03:02;;;;;;;;;35.40;33.00;;;;;5.54;65.47;103531.56;2027060;27;3604385;-75
2024/01/27 00:04:14;;;;;;;;;40.33;33.00;;;;;5.54;65.62;103536.78;2020271;27;3591901;-75
2024/01/27 00:05:26;;;;;;;;;35.40;33.00;;;;;5.54;65.61;103528.97;2029526;27;3613752;-75
2024/01/27 00:06:38;;;;;;;;;40.00;34.20;;;;;5.52;65.41;103541.06;2030933;27;3622093;-75
2024/01/27 00:07:50;;;;;;;;;40.80;36.00;;;;;5.53;65.45;103534.13;2018437;27;3612722;-75
2024/01/27 00:09:02;;;;;;;;;49.80;37.00;;;;;5.51;65.64;103532.34;2029206;27;3615899;-75
2024/01/27 00:10:14;;;;;;;;;48.80;36.20;;;;;5.53;65.50;103534.13;2027985;27;3596151;-75
2024/01/27 00:11:26;;;;;;;;;45.20;36.40;;;;;5.52;65.49;103533.25;2026964;27;3612728;-75
2024/01/27 00:12:38;;;;;;;;;39.40;34.60;;;;;5.51;65.76;103536.69;2029390;27;3575216;-75
2024/01/27 00:13:50;;;;;;;;;47.40;38.40;;;;;5.50;65.45;103532.31;2062716;27;3592933;-75
2024/01/27 00:15:02;;;;;;;;;40.60;32.00;;;;;5.50;65.53;103534.91;2018648;27;3618941;-75
2024/01/27 00:16:14;;;;;;;;;45.67;36.00;;;;;5.48;66.22;103536.59;2015298;27;3579772;-75
2024/01/27 00:17:27;;;;;;;;;34.00;31.20;;;;;5.46;65.90;103536.53;2044365;27;3610630;-75
2024/01/27 00:18:39;;;;;;;;;40.33;32.33;;;;;5.45;65.98;103536.47;2005637;27;3624173;-75
2024/01/27 00:19:51;;;;;;;;;37.60;32.80;;;;;5.43;65.94;103538.16;2024189;27;3599150;-75
2024/01/27 00:21:06;;;;;;;;;37.00;33.00;;;;;5.42;65.98;103536.38;2019217;27;3588773;-75
2024/01/27 00:22:18;;;;;;;;;39.00;33.00;;;;;5.42;65.91;103536.38;2007592;27;2859608;-75
2024/01/27 00:23:28;;;;;;;;;37.50;33.00;;;;;5.42;66.25;103533.75;2015828;27;2863778;-75
2024/01/27 00:24:39;;;;;;;;;39.60;32.80;;;;;5.43;66.10;103543.38;2022167;27;2874254;-75
2024/01/27 00:25:51;;;;;;;;;30.80;27.40;;;;;5.40;66.11;103537.22;2061479;27;3607494;-75
2024/01/27 00:27:03;;;;;;;;;44.40;36.40;;;;;5.40;65.97;103542.44;2059152;27;3611641;-75
2024/01/27 00:28:15;;;;;;;;;45.00;36.00;;;;;5.40;65.80;103551.97;2018344;27;3595356;-75
2024/01/27 00:29:27;;;;;;;;;42.80;36.00;;;;;5.39;66.24;103551.09;2031314;27;3599154;-75
2024/01/27 00:30:39;;;;;;;;;51.20;38.80;;;;;5.39;66.00;103553.69;2039566;27;3595038;-75
2024/01/27 00:31:51;;;;;;;;;48.67;39.00;;;;;5.40;65.79;103559.81;2034227;27;3583560;-75
2024/01/27 00:33:03;;;;;;;;;42.60;36.40;;;;;5.38;66.38;103554.50;2052794;27;3592896;-75
2024/01/27 00:34:15;;;;;;;;;44.67;39.33;;;;;5.38;66.45;103551.03;2016439;27;3590956;-75
2024/01/27 00:35:27;;;;;;;;;48.67;37.00;;;;;5.36;66.18;103552.72;2057566;27;3640194;-75
2024/01/27 00:36:39;;;;;;;;;45.20;38.00;;;;;5.34;66.25;103559.56;2042365;27;3601357;-75
2024/01/27 00:37:52;;;;;;;;;52.20;39.00;;;;;5.33;66.02;103552.59;2036465;27;3608529;-75
2024/01/27 00:39:04;;;;;;;;;52.00;41.50;;;;;5.32;66.00;103548.22;2021189;27;2858688;-75
2024/01/27 00:40:15;;;;;;;;;51.33;40.67;;;;;5.31;66.17;103554.28;2009797;27;3589145;-75
2024/01/27 00:41:27;;;;;;;;;42.60;35.40;;;;;5.29;66.18;103552.50;2031645;27;3603430;-75
2024/01/27 00:42:40;;;;;;;;;49.00;38.67;;;;;5.29;66.25;103548.97;2026526;27;3595031;-75
2024/01/27 00:43:51;;;;;;;;;47.50;39.00;;;;;5.28;66.18;103550.69;2040403;27;2859619;-75
2024/01/27 00:45:05;;;;;;;;;43.00;36.80;;;;;5.27;66.38;103540.22;2035709;27;3616869;-75
2024/01/27 00:46:16;;;;;;;;;47.00;38.67;;;;;5.27;66.29;103540.22;2007484;27;3581507;-75
2024/01/27 00:47:28;;;;;;;;;43.20;38.00;;;;;5.26;66.15;103533.25;2050825;27;3609578;-75
2024/01/27 00:48:40;;;;;;;;;49.67;39.67;;;;;5.26;66.23;103533.25;2026912;27;3598557;-75
2024/01/27 00:49:54;;;;;;;;;45.00;36.80;;;;;5.25;66.54;103528.84;2052970;27;3590832;-75
2024/01/27 00:51:05;;;;;;;;;55.00;43.33;;;;;5.24;66.35;103530.56;2041028;27;3600180;-75
2024/01/27 00:52:17;;;;;;;;;50.33;38.00;;;;;5.25;66.32;103541.91;2031443;27;3582523;-75
2024/01/27 00:53:29;;;;;;;;;52.00;40.80;;;;;5.24;66.63;103534.91;2061350;27;3601261;-75
2024/01/27 00:54:41;;;;;;;;;46.00;38.00;;;;;5.25;66.57;103539.28;2025154;27;3587743;-75
2024/01/27 00:55:53;;;;;;;;;55.00;42.00;;;;;5.24;66.96;103541.00;2055427;27;3623138;-75
2024/01/27 00:57:05;;;;;;;;;51.60;41.00;;;;;5.23;66.52;103547.06;2029659;27;3585608;-75
2024/01/27 00:58:18;;;;;;;;;54.29;43.29;;;;;5.22;66.63;103549.59;2042837;27;3594386;-75
2024/01/27 00:59:29;;;;;;;;;55.40;43.80;;;;;5.22;66.70;103541.78;2012464;27;2874179;-75
2024/01/27 01:00:42;;;;;;;;;58.29;46.00;;;;;5.19;66.57;103539.94;2050370;27;3608886;-75
2024/01/27 01:01:55;;;;;;;;;58.43;46.29;;;;;5.19;66.51;103539.94;2027943;27;3619395;-75
2024/01/27 01:03:07;;;;;;;;;62.00;48.00;;;;;5.16;66.59;103530.31;2017663;27;3629416;-75
2024/01/27 01:04:19;;;;;;;;;56.00;44.00;;;;;5.18;66.72;103539.06;2029786;27;3599165;-75
2024/01/27 01:05:31;;;;;;;;;54.67;45.00;;;;;5.20;66.94;103538.25;2038739;28;3594032;-75
2024/01/27 01:06:44;;;;;;;;;52.57;44.14;;;;;5.19;66.89;103539.94;2043786;27;3596179;-75
2024/01/27 01:07:56;;;;;;;;;52.20;42.20;;;;;5.18;66.94;103539.06;2032169;27;3588756;-75
2024/01/27 01:09:09;;;;;;;;;52.00;41.14;;;;;5.17;66.60;103536.41;2056684;27;3610658;-75
2024/01/27 01:10:21;;;;;;;;;55.00;44.67;;;;;5.13;66.79;103535.44;2004118;27;3619008;-75
2024/01/27 01:11:33;;;;;;;;;52.00;42.00;;;;;5.14;66.75;103542.41;2024691;27;3612716;-75
2024/01/27 01:12:45;;;;;;;;;48.67;40.00;;;;;5.13;66.84;103537.16;2034759;27;3596084;-75
2024/01/27 01:13:57;;;;;;;;;45.67;39.33;;;;;5.14;66.62;103536.28;2056961;27;3595425;-75
2024/01/27 01:15:09;;;;;;;;;48.00;40.00;;;;;5.14;66.78;103533.69;2028748;27;3618968;-75
2024/01/27 01:16:21;;;;;;;;;48.33;39.67;;;;;5.14;66.35;103528.47;2013558;27;3602386;-75
2024/01/27 01:17:33;;;;;;;;;50.00;40.00;;;;;5.12;66.47;103528.44;2021983;27;3592927;-75
2024/01/27 01:18:45;;;;;;;;;47.60;39.00;;;;;5.10;66.61;103527.50;2061565;27;3601412;-75
2024/01/27 01:19:57;;;;;;;;;50.33;38.33;;;;;5.11;67.05;103525.78;2024674;27;3597191;-75
2024/01/27 01:21:08;;;;;;;;;40.33;36.00;;;;;5.09;66.79;103522.22;2030065;27;3613780;-75
2024/01/27 01:22:20;;;;;;;;;39.80;36.60;;;;;5.07;66.53;103519.56;2039467;27;3611692;-75
2024/01/27 01:23:33;;;;;;;;;45.60;36.60;;;;;5.07;66.76;103523.06;2039450;27;3574202;-75
2024/01/27 01:24:44;;;;;;;;;46.80;36.20;;;;;5.05;66.94;103510.78;2059157;27;3634569;-75
2024/01/27 01:25:56;;;;;;;;;42.60;35.80;;;;;5.05;66.86;103508.19;2037842;27;3604373;-75
2024/01/27 01:27:08;;;;;;;;;50.00;40.00;;;;;5.04;66.89;103509.00;2022721;27;3596181;-75
2024/01/27 01:28:20;;;;;;;;;50.33;39.67;;;;;5.04;66.61;103516.81;2025126;27;3633563;-75
2024/01/27 01:29:32;;;;;;;;;43.80;37.60;;;;;5.01;67.01;103512.38;2039333;27;3611656;-75
2024/01/27 01:30:44;;;;;;;;;52.40;43.00;;;;;5.01;67.01;103515.00;2028481;27;3596048;-75
2024/01/27 01:31:56;;;;;;;;;52.67;42.33;;;;;4.99;67.16;103510.59;2024994;27;3606498;-75
2024/01/27 01:33:10;;;;;;;;;46.00;37.67;;;;;5.00;67.00;103514.97;2030331;27;3611697;-75
2024/01/27 01:34:21;;;;;;;;;53.67;41.33;;;;;4.97;67.41;103513.13;2015949;27;3591909;-75
2024/01/27 01:35:33;;;;;;;;;49.67;40.33;;;;;4.97;67.26;103507.91;2031478;27;3588761;-75
2024/01/27 01:36:45;;;;;;;;;49.00;40.67;;;;;4.98;67.19;103506.19;2031639;27;3593043;-75
2024/01/27 01:37:57;;;;;;;;;49.33;40.00;;;;;4.97;67.45;103510.53;2027913;27;3610662;-75
2024/01/27 01:39:11;;;;;;;;;47.67;39.33;;;;;4.95;66.81;103515.69;2033139;27;3610678;-75
2024/01/27 01:40:22;;;;;;;;;51.33;41.33;;;;;4.94;66.75;103519.13;2007013;27;3593991;-75
2024/01/27 01:41:34;;;;;;;;;52.67;39.00;;;;;4.93;66.63;103517.34;2032824;27;3581536;-75
2024/01/27 01:42:51;;;;;;;;;53.20;42.20;;;;;4.92;67.14;103510.34;2036509;27;2867932;-75
2024/01/27 01:44:02;;;;;;;;;47.50;40.00;;;;;4.90;66.98;103519.84;2027105;27;2856526;-75
2024/01/27 01:45:14;;;;;;;;;50.20;39.20;;;;;4.90;66.94;103525.06;2042017;27;3598190;-75
2024/01/27 01:46:26;;;;;;;;;48.67;38.00;;;;;4.89;67.07;103519.81;2033290;27;3624236;-75
2024/01/27 01:47:37;;;;;;;;;53.33;40.67;;;;;4.89;66.85;103520.66;2018062;27;3600239;-75
2024/01/27 01:48:50;;;;;;;;;49.67;39.67;;;;;4.88;66.91;103504.97;2024645;27;3585679;-75
2024/01/27 01:50:02;;;;;;;;;53.00;41.33;;;;;4.86;67.05;103509.25;2048569;27;3602374;-75
2024/01/27 01:51:14;;;;;;;;;53.67;42.67;;;;;4.85;66.83;103508.38;2021594;27;3594085;-75
2024/01/27 01:52:24;;;;;;;;;48.00;39.50;;;;;4.84;67.40;103514.41;2017283;27;2862763;-75
2024/01/27 01:53:36;;;;;;;;;57.80;44.60;;;;;4.83;67.07;103516.13;2026677;27;3606461;-75
2024/01/27 01:54:51;;;;;;;;;60.33;47.00;;;;;4.83;67.26;103517.84;2040289;27;3609620;-75
2024/01/27 01:56:04;;;;;;;;;61.33;48.00;;;;;4.82;67.06;103513.47;2015570;27;3615850;-75
2024/01/27 01:57:16;;;;;;;;;63.33;48.00;;;;;4.82;67.54;103519.56;2014568;27;3621063;-75
2024/01/27 01:58:33;;;;;;;;;63.00;47.67;;;;;4.82;67.25;103510.84;2017144;27;3626271;-75
2024/01/27 01:59:45;;;;;;;;;68.00;51.67;;;;;4.82;67.25;103514.34;2017331;27;3637729;-75
2024/01/27 02:00:57;;;;;;;;;54.00;44.67;;;;;4.80;67.36;103512.53;2029510;27;3587724;-75
2024/01/27 02:02:09;;;;;;;;;59.00;48.67;;;;;4.79;67.41;103519.44;2052583;27;3592965;-75
2024/01/27 02:03:21;;;;;;;;;68.00;51.67;;;;;4.78;67.47;103522.91;2045934;27;3629413;-75
2024/01/27 02:04:48;;;;;;;;;67.00;52.00;;;;;4.78;68.01;103528.13;2020354;27;2887856;-75
2024/01/27 02:06:00;;;;;;;;;66.67;50.00;;;;;4.79;67.60;103529.00;2040622;27;3635673;-75
2024/01/27 02:07:12;;;;;;;;;61.67;48.00;;;;;4.78;67.96;103524.63;2022986;27;3598167;-75
2024/01/27 02:08:24;;;;;;;;;62.67;49.00;;;;;4.78;67.80;103525.50;2032649;27;3614823;-75
2024/01/27 02:09:36;;;;;;;;;68.33;52.00;;;;;4.77;67.89;103522.81;2039106;27;3637735;-75
2024/01/27 02:10:49;;;;;;;;;54.71;44.86;;;;;4.78;67.81;103529.81;2040550;27;3599255;-75
2024/01/27 02:12:01;;;;;;;;;62.33;48.00;;;;;4.75;67.86;103528.00;2029793;27;3625245;-75
2024/01/27 02:13:22;;;;;;;;;59.67;45.67;;;;;4.76;67.85;103523.66;2015872;27;3617925;-75
2024/01/27 02:14:34;;;;;;;;;61.00;48.33;;;;;4.75;67.86;103532.31;2016639;27;3614163;-75
2024/01/27 02:15:47;;;;;;;;;55.00;45.33;;;;;4.72;67.65;103520.94;2025832;27;3605434;-75
2024/01/27 02:16:58;;;;;;;;;61.33;48.00;;;;;4.72;67.46;103528.75;2015551;27;3619056;-75
2024/01/27 02:18:10;;;;;;;;;61.67;47.33;;;;;4.71;67.65;103521.78;2030771;27;3618976;-75
2024/01/27 02:19:23;;;;;;;;;55.80;45.40;;;;;4.71;67.63;103518.28;2036355;27;3602294;-75
2024/01/27 02:20:35;;;;;;;;;55.00;44.67;;;;;4.71;67.61;103521.78;2004766;27;3604385;-75
2024/01/27 02:21:47;;;;;;;;;58.00;47.33;;;;;4.71;67.79;103519.19;2021916;27;3618984;-75
2024/01/27 02:23:03;;;;;;;;;55.57;46.29;;;;;4.70;67.54;103520.00;2034196;27;3603360;-75
2024/01/27 02:24:15;;;;;;;;;60.33;48.67;;;;;4.69;67.70;103517.34;2007960;27;3609723;-75
2024/01/27 02:25:27;;;;;;;;;55.00;45.00;;;;;4.67;67.30;103516.38;2026617;27;3583556;-75
2024/01/27 02:26:38;;;;;;;;;57.67;46.00;;;;;4.65;67.90;103508.53;2057253;27;3595031;-75
2024/01/27 02:27:50;;;;;;;;;59.67;47.00;;;;;4.64;67.74;103509.38;2054864;27;3612772;-75
2024/01/27 02:29:03;;;;;;;;;60.57;47.71;;;;;4.64;67.44;103509.38;2020334;27;3630851;-75
2024/01/27 02:30:15;;;;;;;;;59.00;47.67;;;;;4.63;67.63;103507.59;2024832;27;3615878;-75
2024/01/27 02:31:27;;;;;;;;;56.00;45.33;;;;;4.63;67.63;103511.91;2032040;27;3604400;-75
2024/01/27 02:32:38;;;;;;;;;54.80;44.20;;;;;4.61;67.70;103510.16;2010647;27;2866892;-75
2024/01/27 02:33:51;;;;;;;;;58.29;45.43;;;;;4.60;67.68;103510.06;2051434;27;3604369;-75
2024/01/27 02:35:04;;;;;;;;;57.86;47.14;;;;;4.59;67.67;103500.50;2025220;27;3606469;-75
2024/01/27 02:36:16;;;;;;;;;60.00;47.33;;;;;4.58;67.71;103504.81;2009115;27;3618984;-75
2024/01/27 02:37:27;;;;;;;;;62.40;48.00;;;;;4.57;67.97;103499.53;2012270;27;2870024;-75
2024/01/27 02:38:39;;;;;;;;;62.33;48.00;;;;;4.57;67.78;103502.13;2057571;27;3615833;-75
2024/01/27 02:39:51;;;;;;;;;63.33;48.33;;;;;4.57;68.12;103502.13;2028203;27;3638807;-75
2024/01/27 02:41:04;;;;;;;;;64.00;49.14;;;;;4.56;67.66;103505.59;2033647;27;3621048;-75
2024/01/27 02:42:16;;;;;;;;;59.67;48.67;;;;;4.56;67.84;103501.25;2028960;27;3601277;-75
2024/01/27 02:43:27;;;;;;;;;67.20;50.80;;;;;4.53;67.90;103495.94;2018918;27;2872087;-75
2024/01/27 02:44:38;;;;;;;;;60.20;47.20;;;;;4.54;67.94;103496.81;2042332;27;2870052;-75
2024/01/27 02:45:49;;;;;;;;;56.80;45.00;;;;;4.54;67.75;103494.22;2037467;27;2867001;-75
2024/01/27 02:47:00;;;;;;;;;64.20;49.80;;;;;4.53;67.96;103495.03;2039265;27;2873177;-75
2024/01/27 02:48:12;;;;;;;;;62.67;50.00;;;;;4.53;67.84;103493.31;2032727;27;3620013;-75
2024/01/27 02:49:24;;;;;;;;;61.00;47.00;;;;;4.52;68.13;103494.16;2022988;27;3629402;-75
2024/01/27 02:50:37;;;;;;;;;58.86;46.86;;;;;4.52;67.55;103488.94;2033469;27;3592931;-75
2024/01/27 02:51:51;;;;;;;;;65.00;51.50;;;;;4.52;67.66;103490.69;2034136;27;3635617;-75
2024/01/27 02:53:02;;;;;;;;;56.33;42.00;;;;;4.50;67.88;103501.91;2039410;27;3620046;-75
2024/01/27 02:54:14;;;;;;;;;62.00;48.00;;;;;4.48;68.00;103500.97;2031919;27;3605439;-75
2024/01/27 02:55:28;;;;;;;;;62.25;48.75;;;;;4.48;68.19;103502.69;2031467;27;3639789;-75
2024/01/27 02:56:39;;;;;;;;;62.00;48.00;;;;;4.46;67.87;103494.81;2011787;27;3615866;-75
2024/01/27 02:57:52;;;;;;;;;63.00;49.86;;;;;4.47;67.82;103487.91;2030672;27;3608619;-75
2024/01/27 02:59:04;;;;;;;;;59.80;48.60;;;;;4.46;68.17;103493.94;2037002;27;3600183;-75
2024/01/27 03:00:19;;;;;;;;;67.38;52.25;;;;;4.44;67.85;103496.50;2033270;27;3639810;-75
2024/01/27 03:01:30;;;;;;;;;60.33;49.67;;;;;4.42;68.21;103487.69;2015444;27;3611711;-75
2024/01/27 03:02:42;;;;;;;;;63.33;51.67;;;;;4.43;67.93;103493.81;2038867;27;3612800;-75
2024/01/27 03:03:55;;;;;;;;;62.29;50.29;;;;;4.42;68.15;103495.50;2032449;27;3606485;-75
2024/01/27 03:05:07;;;;;;;;;69.00;52.67;;;;;4.42;67.99;103489.44;2014093;27;3621206;-75
2024/01/27 03:06:19;;;;;;;;;65.00;52.40;;;;;4.40;67.67;103484.16;2010356;27;3618956;-75
2024/01/27 03:07:30;;;;;;;;;63.80;52.00;;;;;4.38;67.90;103488.44;2014082;27;2873183;-75
2024/01/27 03:08:42;;;;;;;;;64.40;52.20;;;;;4.37;67.96;103492.75;2052894;27;3618983;-75
2024/01/27 03:09:55;;;;;;;;;59.14;48.29;;;;;4.37;68.23;103499.69;2042324;27;3604385;-75
2024/01/27 03:11:08;;;;;;;;;65.29;51.71;;;;;4.36;68.05;103497.91;2033989;27;3621071;-75
2024/01/27 03:12:22;;;;;;;;;64.60;52.00;;;;;4.36;68.16;103501.41;2034449;27;3609606;-75
2024/01/27 03:13:34;;;;;;;;;64.33;50.00;;;;;4.35;68.05;103493.50;2014491;27;3618955;-75
2024/01/27 03:14:48;;;;;;;;;68.67;52.00;;;;;4.35;67.82;103490.91;2023839;27;3646654;-75
2024/01/27 03:15:59;;;;;;;;;64.00;50.33;;;;;4.33;67.81;103490.88;2005988;27;3608574;-75
2024/01/27 03:17:11;;;;;;;;;61.67;47.67;;;;;4.33;68.19;103479.56;2019812;27;3599217;-75
2024/01/27 03:18:24;;;;;;;;;63.33;50.67;;;;;4.32;68.03;103486.47;2024609;27;3602325;-75
2024/01/27 03:19:36;;;;;;;;;62.67;49.67;;;;;4.30;68.02;103480.31;2039789;27;3616905;-75
2024/01/27 03:20:49;;;;;;;;;64.43;52.00;;;;;4.30;67.71;103488.13;2024439;27;3624204;-75
2024/01/27 03:22:01;;;;;;;;;64.00;50.00;;;;;4.28;67.77;103482.88;2020712;27;3613779;-75
2024/01/27 03:23:13;;;;;;;;;66.33;50.00;;;;;4.27;67.83;103488.03;2003557;27;3625258;-75
2024/01/27 03:24:26;;;;;;;;;64.71;50.43;;;;;4.26;68.26;103486.25;2026051;27;3624222;-75
2024/01/27 03:25:38;;;;;;;;;64.80;50.20;;;;;4.25;68.29;103489.66;2027678;27;3627301;-75
2024/01/27 03:26:50;;;;;;;;;63.67;50.00;;;;;4.24;67.62;103482.72;2019143;27;3606521;-75
2024/01/27 03:28:02;;;;;;;;;65.67;51.67;;;;;4.22;68.03;103482.63;2033858;27;3626313;-75
2024/01/27 03:29:14;;;;;;;;;64.33;47.33;;;;;4.21;67.95;103483.47;2021847;27;3613802;-75
2024/01/27 03:30:26;;;;;;;;;67.00;51.67;;;;;4.22;68.08;103486.97;2016356;27;3626280;-75
2024/01/27 03:31:38;;;;;;;;;69.00;54.00;;;;;4.20;68.28;103488.63;2011429;27;3621084;-75
2024/01/27 03:32:50;;;;;;;;;67.67;54.00;;;;;4.17;68.49;103484.19;2025343;27;3612814;-75
2024/01/27 03:34:02;;;;;;;;;66.80;52.60;;;;;4.16;68.36;103482.41;2003352;27;2873264;-75
2024/01/27 03:35:14;;;;;;;;;68.67;53.33;;;;;4.16;67.79;103482.41;2028961;27;3625242;-75
2024/01/27 03:36:26;;;;;;;;;63.00;50.33;;;;;4.15;68.01;103483.22;2034464;27;3608651;-75
2024/01/27 03:37:37;;;;;;;;;62.67;49.67;;;;;4.11;68.15;103477.03;2023353;27;3613112;-75
2024/01/27 03:38:49;;;;;;;;;61.67;47.00;;;;;4.11;67.70;103476.13;2028269;27;3625265;-75
2024/01/27 03:40:01;;;;;;;;;61.00;50.40;;;;;4.09;68.15;103477.78;2010936;27;2867268;-75
2024/01/27 03:41:12;;;;;;;;;69.67;53.00;;;;;4.08;68.42;103479.50;2036302;27;3632575;-75
2024/01/27 03:42:25;;;;;;;;;63.40;51.60;;;;;4.08;67.98;103476.91;2035302;27;3618932;-75
2024/01/27 03:43:36;;;;;;;;;61.00;50.00;;;;;4.05;68.08;103477.66;2010343;27;3613756;-75
2024/01/27 03:44:48;;;;;;;;;65.00;51.00;;;;;4.06;67.67;103475.97;2025104;27;3606435;-75
2024/01/27 03:46:02;;;;;;;;;62.29;50.14;;;;;4.05;67.91;103476.78;2026015;27;3607541;-75
2024/01/27 03:47:14;;;;;;;;;58.33;50.00;;;;;4.03;68.30;103476.72;2015900;27;3604445;-75
2024/01/27 03:48:25;;;;;;;;;68.80;53.20;;;;;4.04;67.93;103480.22;2018525;27;2885756;-75
2024/01/27 03:49:37;;;;;;;;;69.33;53.00;;;;;4.02;67.90;103476.69;2039610;27;3634576;-75
2024/01/27 03:50:49;;;;;;;;;65.40;52.80;;;;;4.00;68.45;103474.00;2037893;27;3623130;-75
2024/01/27 03:52:01;;;;;;;;;68.00;52.33;;;;;3.97;68.55;103476.50;2024706;27;3629424;-75
2024/01/27 03:53:13;;;;;;;;;65.20;50.40;;;;;3.97;68.06;103480.81;2017308;27;3630523;-75
2024/01/27 03:54:25;;;;;;;;;68.33;55.00;;;;;3.96;68.38;103466.91;2017046;27;3606551;-75
2024/01/27 03:55:36;;;;;;;;;67.20;51.60;;;;;3.96;68.38;103471.22;2018800;27;2885744;-75
2024/01/27 03:56:48;;;;;;;;;67.00;53.00;;;;;3.96;68.24;103468.63;2058252;27;3619309;-75
2024/01/27 03:57:59;;;;;;;;;68.20;53.60;;;;;3.95;67.82;103480.75;2021154;27;2887797;-75
2024/01/27 03:59:12;;;;;;;;;61.29;50.71;;;;;3.94;68.50;103471.16;2058794;27;3609594;-75
2024/01/27 04:00:24;;;;;;;;;63.00;51.67;;;;;3.91;67.79;103473.63;2024724;27;3611708;-75
2024/01/27 04:01:36;;;;;;;;;64.33;51.00;;;;;3.90;68.67;103477.09;2023703;27;3629397;-74
2024/01/27 04:02:48;;;;;;;;;70.00;51.67;;;;;3.91;68.24;103486.66;2011899;27;3651269;-75
2024/01/27 04:04:00;;;;;;;;;64.00;51.67;;;;;3.88;68.33;103482.22;2023036;27;3625249;-75
2024/01/27 04:05:12;;;;;;;;;67.67;52.67;;;;;3.87;68.31;103483.06;2027375;27;3631527;-75
2024/01/27 04:06:24;;;;;;;;;65.67;52.00;;;;;3.87;68.47;103476.97;2023521;27;3624204;-75
2024/01/27 04:07:35;;;;;;;;;71.80;55.60;;;;;3.88;68.41;103473.50;2003982;27;2873161;-75
2024/01/27 04:08:49;;;;;;;;;75.13;56.50;;;;;3.88;68.37;103478.72;2048466;27;3648217;-75
2024/01/27 04:10:03;;;;;;;;;69.60;53.80;;;;;3.87;68.48;103466.53;2034614;27;3627304;-74
2024/01/27 04:11:22;;;;;;;;;75.67;57.00;;;;;3.86;68.68;103465.66;2014199;27;3633531;-74
2024/01/27 04:12:33;;;;;;;;;71.33;55.67;;;;;3.86;69.00;103472.56;2015927;27;3626304;-74
2024/01/27 04:13:45;;;;;;;;;70.40;55.00;;;;;3.85;68.77;103468.22;2024781;27;3618935;-75
2024/01/27 04:14:59;;;;;;;;;67.40;53.40;;;;;3.85;68.92;103469.09;2017089;27;3611642;-75
2024/01/27 04:16:11;;;;;;;;;68.33;52.67;;;;;3.86;68.86;103467.38;2005964;27;3626241;-75
2024/01/27 04:17:22;;;;;;;;;68.00;52.40;;;;;3.87;68.90;103466.53;2015456;27;2881552;-75
2024/01/27 04:18:34;;;;;;;;;70.33;55.00;;;;;3.87;68.90;103467.44;2042886;27;3620014;-75
2024/01/27 04:19:46;;;;;;;;;70.20;55.00;;;;;3.88;68.65;103468.31;2029746;27;3612690;-75
2024/01/27 04:20:58;;;;;;;;;67.67;54.33;;;;;3.87;68.85;103470.03;2024101;27;3604419;-75
2024/01/27 04:22:09;;;;;;;;;69.20;55.80;;;;;3.87;68.59;103470.03;2015652;27;2865864;-75
2024/01/27 04:23:21;;;;;;;;;69.60;52.80;;;;;3.85;68.60;103469.09;2052144;27;3627330;-75
2024/01/27 04:24:32;;;;;;;;;67.40;53.40;;;;;3.87;68.90;103474.34;2050617;27;2883550;-75
2024/01/27 04:25:45;;;;;;;;;65.29;52.71;;;;;3.86;68.80;103470.84;2064067;27;3613812;-75
2024/01/27 04:26:58;;;;;;;;;65.80;52.60;;;;;3.87;68.65;103471.75;2019534;27;2881544;-74
2024/01/27 04:28:12;;;;;;;;;64.60;50.80;;;;;3.87;68.99;103476.97;2056543;27;3622116;-75
2024/01/27 04:29:24;;;;;;;;;65.00;50.67;;;;;3.85;68.81;103476.00;2010196;27;3629384;-75
2024/01/27 04:30:36;;;;;;;;;68.67;53.67;;;;;3.85;68.86;103476.00;2031005;27;3626665;-75
2024/01/27 04:31:48;;;;;;;;;67.40;53.80;;;;;3.83;68.82;103484.63;2037074;27;3613727;-75
2024/01/27 04:33:01;;;;;;;;;69.00;51.71;;;;;3.83;68.68;103481.13;2032908;27;3631494;-75
2024/01/27 04:34:12;;;;;;;;;63.20;51.20;;;;;3.83;68.62;103479.44;2009231;27;2875212;-75
2024/01/27 04:35:24;;;;;;;;;68.33;52.33;;;;;3.82;68.46;103469.88;2048930;27;3632505;-74
2024/01/27 04:36:37;;;;;;;;;64.14;50.57;;;;;3.80;68.56;103471.50;2032654;27;3632520;-75
2024/01/27 04:37:49;;;;;;;;;64.33;49.33;;;;;3.79;68.85;103474.94;2015423;27;3613764;-75
2024/01/27 04:39:01;;;;;;;;;64.00;50.40;;;;;3.78;68.33;103478.34;2015309;28;3603683;-75
2024/01/27 04:40:13;;;;;;;;;58.67;48.00;;;;;3.77;68.33;103487.00;2047073;27;3601653;-75
2024/01/27 04:41:24;;;;;;;;;67.00;53.00;;;;;3.76;68.75;103493.03;2020720;27;3607646;-75
2024/01/27 04:42:40;;;;;;;;;69.00;52.80;;;;;3.76;68.71;103492.13;2028199;27;3625222;-75
2024/01/27 04:43:53;;;;;;;;;73.60;56.00;;;;;3.76;68.83;103497.31;2029135;27;3632538;-75
2024/01/27 04:45:08;;;;;;;;;63.67;50.00;;;;;3.75;68.63;103491.25;2025920;27;3626311;-75
2024/01/27 04:46:20;;;;;;;;;74.00;54.33;;;;;3.74;68.91;103492.06;2007632;27;3635092;-75
2024/01/27 04:47:31;;;;;;;;;64.00;50.00;;;;;3.73;68.40;103495.50;2009327;27;3625268;-75
2024/01/27 04:48:43;;;;;;;;;68.33;52.67;;;;;3.73;68.16;103492.88;2029957;27;3632554;-75
2024/01/27 04:49:57;;;;;;;;;64.00;51.67;;;;;3.72;68.82;103480.72;2031832;27;3615865;-75
2024/01/27 04:51:08;;;;;;;;;70.33;52.67;;;;;3.70;68.78;103482.38;2008485;27;3625206;-75
2024/01/27 04:52:21;;;;;;;;;64.67;51.33;;;;;3.69;68.45;103491.00;2034669;27;3615877;-75
2024/01/27 04:53:32;;;;;;;;;67.00;53.33;;;;;3.68;68.34;103487.50;2016370;27;3605507;-75
2024/01/27 04:54:44;;;;;;;;;69.33;52.67;;;;;3.66;69.20;103483.06;2021807;27;3622185;-74
2024/01/27 04:55:57;;;;;;;;;61.43;49.43;;;;;3.66;68.84;103486.56;2027049;27;3598175;-75
2024/01/27 04:57:09;;;;;;;;;64.33;52.67;;;;;3.65;68.78;103482.19;2017080;27;3618968;-75
2024/01/27 04:58:21;;;;;;;;;67.33;52.33;;;;;3.64;68.57;103476.91;2011509;27;3619005;-75
2024/01/27 04:59:34;;;;;;;;;63.43;50.86;;;;;3.63;68.95;103486.41;2028534;27;3609660;-75
2024/01/27 05:00:46;;;;;;;;;64.33;49.33;;;;;3.62;69.05;103489.88;2027854;27;3611739;-74
2024/01/27 05:01:58;;;;;;;;;63.33;48.33;;;;;3.60;68.94;103484.56;2029377;27;3607874;-74
2024/01/27 05:03:13;;;;;;;;;67.20;52.60;;;;;3.61;68.34;103490.69;2013539;27;2877307;-74
2024/01/27 05:04:26;;;;;;;;;72.00;53.00;;;;;3.59;68.44;103490.63;2034707;27;3648174;-74
2024/01/27 05:05:40;;;;;;;;;68.00;51.67;;;;;3.57;68.76;103492.28;2008513;27;3641944;-74
2024/01/27 05:06:52;;;;;;;;;68.67;53.00;;;;;3.57;68.28;103494.00;2002051;27;3630842;-75
2024/01/27 05:08:04;;;;;;;;;70.67;54.33;;;;;3.56;68.65;103497.41;2013118;27;3621078;-75
2024/01/27 05:09:16;;;;;;;;;72.80;53.80;;;;;3.53;69.00;103494.69;2026770;27;3643953;-75
2024/01/27 05:10:28;;;;;;;;;69.60;52.00;;;;;3.52;68.48;103496.41;2017058;27;3634919;-75
2024/01/27 05:11:39;;;;;;;;;62.40;46.20;;;;;3.53;69.04;103495.56;2021824;27;2890940;-75
2024/01/27 05:12:51;;;;;;;;;67.67;52.67;;;;;3.54;68.58;103501.66;2050108;27;3614806;-74
2024/01/27 05:14:03;;;;;;;;;69.33;52.00;;;;;3.52;68.60;103498.09;2018275;27;3655451;-74
2024/01/27 05:15:16;;;;;;;;;64.29;51.00;;;;;3.51;68.70;103499.81;2026354;27;3609613;-74
2024/01/27 05:16:28;;;;;;;;;65.33;52.67;;;;;3.50;68.80;103498.06;2032607;27;3624196;-75
2024/01/27 05:17:40;;;;;;;;;69.33;53.67;;;;;3.48;68.38;103497.09;2018401;27;3610674;-75
2024/01/27 05:18:53;;;;;;;;;70.38;52.50;;;;;3.49;68.70;103504.06;2035107;27;3644992;-75
2024/01/27 05:20:08;;;;;;;;;65.43;52.43;;;;;3.48;69.18;103502.31;2033875;27;3628377;-75
2024/01/27 05:21:20;;;;;;;;;60.33;48.00;;;;;3.48;68.84;103507.50;2008486;27;3597113;-75
2024/01/27 05:22:32;;;;;;;;;61.33;51.67;;;;;3.47;68.82;103503.13;2049836;27;3609624;-75
2024/01/27 05:23:45;;;;;;;;;68.71;53.00;;;;;3.48;68.72;103507.50;2031312;27;3632541;-74
2024/01/27 05:24:57;;;;;;;;;68.33;53.00;;;;;3.44;69.05;103509.09;2028426;27;3611692;-74